Time;durP1;ratioP1;P1;durP2;ratioP2;P2;SDS_P1;SDS_P2;PMS_P1;PMS_P2;Temp;Humidity;BMP_temperature;BMP_pressure;BME280_temperature;BME280_humidity;BME280_pressure;Samples;Min_cycle;Max_cycle;Signal;HPM_P1;HPM_P2
2022/10/04 00:00:40;;;;;;;6.57;3.85;;;12.50;99.90;;;;;;5054544;28;20052;-53
2022/10/04 00:03:20;;;;;;;6.53;3.88;;;12.50;99.90;;;;;;5053970;28;20021;-57
2022/10/04 00:05:49;;;;;;;7.78;3.65;;;12.50;99.90;;;;;;5054151;28;20029;-57
2022/10/04 00:08:21;;;;;;;7.57;3.75;;;12.50;99.90;;;;;;5053606;28;20334;-59
2022/10/04 00:10:47;;;;;;;8.85;4.35;;;12.50;99.90;;;;;;5053966;28;20037;-61
2022/10/04 00:13:18;;;;;;;9.48;4.70;;;12.50;99.90;;;;;;5054324;28;20028;-55
2022/10/04 00:15:49;;;;;;;8.43;4.57;;;12.50;99.90;;;;;;5053154;28;20025;-62
2022/10/04 00:18:59;;;;;;;12.25;4.88;;;12.50;99.90;;;;;;5053969;28;20071;-59
2022/10/04 00:21:51;;;;;;;9.55;5.55;;;12.50;99.90;;;;;;5011903;28;20534;-55
2022/10/04 00:24:25;;;;;;;30.83;14.48;;;12.50;99.90;;;;;;5054044;28;20029;-54
2022/10/04 00:26:50;;;;;;;28.70;15.88;;;12.50;99.90;;;;;;5053933;28;20013;-53
2022/10/04 00:29:25;;;;;;;21.83;13.27;;;12.60;99.90;;;;;;5053099;28;20021;-58
2022/10/04 00:32:09;;;;;;;24.20;14.50;;;12.60;99.90;;;;;;5053495;28;20036;-63
2022/10/04 00:34:34;;;;;;;24.42;14.18;;;12.60;99.90;;;;;;5053633;28;20466;-57
2022/10/04 00:37:02;;;;;;;20.55;11.35;;;12.60;99.90;;;;;;5053076;28;20035;-58
2022/10/04 00:39:31;;;;;;;19.73;10.70;;;12.60;99.90;;;;;;5053762;28;20036;-52
2022/10/04 00:42:02;;;;;;;23.23;12.93;;;12.60;99.90;;;;;;5053619;28;20035;-55
2022/10/04 00:44:41;;;;;;;;;;;12.60;99.90;;;;;;5053390;28;20053;-57
2022/10/04 00:47:33;;;;;;;21.52;11.90;;;12.70;99.90;;;;;;5053292;28;20384;-59
2022/10/04 00:50:14;;;;;;;25.75;13.52;;;12.60;99.90;;;;;;5052632;28;20032;-58
2022/10/04 00:52:46;;;;;;;23.83;14.23;;;12.60;99.90;;;;;;5052386;28;20048;-55
2022/10/04 00:55:25;;;;;;;28.10;15.30;;;12.60;99.90;;;;;;5053349;28;20136;-53
2022/10/04 00:57:58;;;;;;;28.92;14.05;;;12.60;99.90;;;;;;5052659;28;20118;-64
2022/10/04 01:00:24;;;;;;;17.50;11.10;;;12.60;99.90;;;;;;5053467;28;20104;-56
2022/10/04 01:03:06;;;;;;;18.42;10.65;;;12.60;99.90;;;;;;5053247;28;20134;-56
2022/10/04 01:05:37;;;;;;;;;;;12.60;99.90;;;;;;5052985;28;20059;-54
2022/10/04 01:08:15;;;;;;;20.88;11.27;;;12.60;99.90;;;;;;5052696;28;20426;-62
2022/10/04 01:10:53;;;;;;;24.80;12.93;;;12.60;99.90;;;;;;5053384;28;20044;-61
2022/10/04 01:13:22;;;;;;;22.73;12.65;;;12.60;99.90;;;;;;5052610;28;20013;-56
2022/10/04 01:15:55;;;;;;;20.58;12.15;;;12.50;99.90;;;;;;5052757;28;20492;-56
2022/10/04 01:18:21;;;;;;;17.77;10.13;;;12.60;99.90;;;;;;5052120;28;20040;-54
2022/10/04 01:20:53;;;;;;;24.42;13.82;;;12.60;99.90;;;;;;5052859;28;20033;-55
2022/10/04 01:23:32;;;;;;;29.40;16.48;;;12.60;99.90;;;;;;5052790;28;20029;-53
2022/10/04 01:25:58;;;;;;;28.58;16.40;;;12.60;99.90;;;;;;5051644;28;20086;-53
2022/10/04 01:28:25;;;;;;;32.13;17.30;;;12.60;99.90;;;;;;5052671;28;20419;-52
2022/10/04 01:30:51;;;;;;;22.08;12.55;;;12.50;99.90;;;;;;5052324;28;20493;-51
2022/10/04 01:33:18;;;;;;;14.02;8.45;;;12.50;99.90;;;;;;5051751;28;20021;-51
2022/10/04 01:35:43;;;;;;;10.93;6.68;;;12.50;99.90;;;;;;5052357;28;20413;-56
2022/10/04 01:38:11;;;;;;;11.07;6.13;;;12.50;99.90;;;;;;5052390;28;20021;-50
2022/10/04 01:40:53;;;;;;;10.70;5.63;;;12.50;99.90;;;;;;5052030;28;20033;-50
2022/10/04 01:43:28;;;;;;;11.57;5.10;;;12.50;99.90;;;;;;5052482;28;20105;-52
2022/10/04 01:46:01;;;;;;;8.50;5.32;;;12.50;99.90;;;;;;5052074;28;20033;-52
2022/10/04 01:48:34;;;;;;;8.73;4.72;;;12.50;99.90;;;;;;5051728;28;20529;-51
2022/10/04 01:51:22;;;;;;;10.73;5.13;;;12.50;99.90;;;;;;5051771;28;20037;-51
2022/10/04 01:54:00;;;;;;;10.25;4.85;;;12.40;99.90;;;;;;5051295;28;20025;-56
2022/10/04 01:56:33;;;;;;;8.35;4.88;;;12.40;99.90;;;;;;5053248;28;20025;-56
2022/10/04 01:59:05;;;;;;;11.52;5.13;;;12.30;99.90;;;;;;5052480;28;20021;-47
2022/10/04 02:01:43;;;;;;;9.45;4.97;;;12.30;99.90;;;;;;5051310;28;20109;-53
2022/10/04 02:04:39;;;;;;;8.20;5.15;;;12.20;99.90;;;;;;5051696;28;20079;-58
2022/10/04 02:07:12;;;;;;;11.77;7.00;;;12.10;99.90;;;;;;5048533;28;20056;-51
2022/10/04 02:09:42;;;;;;;20.63;12.48;;;12.10;99.90;;;;;;5051701;28;20061;-54
2022/10/04 02:12:08;;;;;;;29.85;17.38;;;12.10;99.90;;;;;;5050226;28;20036;-53
2022/10/04 02:14:35;;;;;;;35.40;19.88;;;12.00;99.90;;;;;;5051274;28;20025;-55
2022/10/04 02:17:06;;;;;;;31.15;19.60;;;12.00;99.90;;;;;;5051314;28;20041;-52
2022/10/04 02:19:35;;;;;;;31.92;18.50;;;12.00;99.90;;;;;;5051780;28;20025;-53
2022/10/04 02:22:04;;;;;;;33.42;19.73;;;12.00;99.90;;;;;;5050838;28;20070;-57
2022/10/04 02:24:33;;;;;;;28.70;19.13;;;12.00;99.90;;;;;;5051436;28;20397;-54
2022/10/04 02:26:59;;;;;;;29.30;15.75;;;12.00;99.90;;;;;;5051408;28;20470;-59
2022/10/04 02:29:25;;;;;;;18.67;11.32;;;12.10;99.90;;;;;;5050923;28;20090;-56
2022/10/04 02:34:45;;;;;;;13.80;7.75;;;12.10;99.90;;;;;;5027947;28;20474;-56
2022/10/04 02:37:11;;;;;;;15.25;8.15;;;12.10;99.90;;;;;;5050981;28;20086;-55
2022/10/04 02:39:46;;;;;;;16.20;10.05;;;12.00;99.90;;;;;;5051465;28;20035;-63
2022/10/04 02:42:19;;;;;;;22.58;14.55;;;12.00;99.90;;;;;;5051629;28;20028;-67
2022/10/04 02:44:53;;;;;;;26.65;14.55;;;11.90;99.90;;;;;;5050599;28;20056;-57
2022/10/04 02:47:29;;;;;;;30.55;19.13;;;11.80;99.90;;;;;;5051608;28;20361;-58
2022/10/04 02:50:05;;;;;;;33.67;18.85;;;11.80;99.90;;;;;;5050525;28;20104;-63
2022/10/04 02:52:42;;;;;;;32.70;17.40;;;11.70;99.90;;;;;;5051605;28;20033;-72
2022/10/04 02:55:22;;;;;;;29.35;17.42;;;11.60;99.90;;;;;;5051300;28;20067;-73
2022/10/04 02:57:51;;;;;;;25.73;16.25;;;11.60;99.90;;;;;;5050733;28;20099;-67
2022/10/04 03:00:16;;;;;;;28.52;18.40;;;11.50;99.90;;;;;;5051565;28;20071;-58
2022/10/04 03:03:17;;;;;;;21.63;13.32;;;11.50;99.90;;;;;;5051133;28;20049;-58
2022/10/04 03:05:46;;;;;;;21.23;11.75;;;11.40;99.90;;;;;;5051073;28;20104;-60
2022/10/04 03:08:13;;;;;;;19.08;12.52;;;11.40;99.90;;;;;;5051649;28;20021;-72
2022/10/04 03:10:42;;;;;;;21.17;12.55;;;11.30;99.90;;;;;;5050686;28;20080;-66
2022/10/04 03:13:07;;;;;;;22.98;13.43;;;11.30;99.90;;;;;;5051146;28;20024;-58
2022/10/04 03:15:33;;;;;;;29.55;14.98;;;11.30;99.90;;;;;;5051580;28;20029;-70
2022/10/04 03:17:59;;;;;;;22.10;14.48;;;11.30;99.90;;;;;;5054023;28;20366;-68
2022/10/04 03:20:25;;;;;;;20.38;13.85;;;11.30;99.90;;;;;;5055492;28;20466;-70
2022/10/04 03:22:54;;;;;;;24.02;16.05;;;11.40;99.90;;;;;;5055352;28;20025;-70
2022/10/04 03:25:28;;;;;;;22.40;14.40;;;11.40;99.90;;;;;;5054928;28;20104;-73
2022/10/04 03:27:58;;;;;;;19.73;12.35;;;11.40;99.90;;;;;;5055053;28;20017;-72
2022/10/04 03:30:24;;;;;;;19.63;13.52;;;11.40;99.90;;;;;;5054828;28;20477;-55
2022/10/04 03:32:50;;;;;;;23.10;13.40;;;11.50;99.90;;;;;;5054011;28;20139;-57
2022/10/04 03:35:33;;;;;;;19.20;13.25;;;11.40;99.90;;;;;;5054887;28;20100;-57
2022/10/04 03:38:02;;;;;;;22.00;14.68;;;11.50;99.90;;;;;;5054693;28;20032;-58
2022/10/04 03:40:29;;;;;;;18.35;11.40;;;11.40;99.90;;;;;;5053911;28;20396;-59
2022/10/04 03:42:56;;;;;;;23.77;14.75;;;11.40;99.90;;;;;;5054351;28;20518;-54
2022/10/04 03:45:23;;;;;;;15.85;9.98;;;11.40;99.90;;;;;;5054301;28;20037;-54
2022/10/04 03:47:50;;;;;;;14.40;8.82;;;11.30;99.90;;;;;;5053808;28;20104;-54
2022/10/04 03:50:22;;;;;;;11.75;7.78;;;11.30;99.90;;;;;;5054434;28;20039;-49
2022/10/04 03:52:53;;;;;;;10.93;7.82;;;11.20;99.90;;;;;;5053592;28;20033;-51
2022/10/04 03:55:22;;;;;;;10.23;6.10;;;11.10;99.90;;;;;;5053230;28;20115;-53
2022/10/04 03:57:48;;;;;;;11.15;6.00;;;11.00;99.90;;;;;;5053983;28;20116;-49
2022/10/04 04:00:17;;;;;;;12.27;7.05;;;11.00;99.90;;;;;;5053815;28;20163;-54
2022/10/04 04:02:49;;;;;;;12.38;6.80;;;10.90;99.90;;;;;;5054258;28;20377;-53
2022/10/04 04:05:25;;;;;;;13.15;7.95;;;10.90;99.90;;;;;;5055868;28;20021;-52
2022/10/04 04:08:03;;;;;;;14.07;8.00;;;10.80;99.90;;;;;;5053512;28;20167;-57
2022/10/04 04:10:33;;;;;;;11.77;7.63;;;10.80;99.90;;;;;;5053868;28;20338;-53
2022/10/04 04:13:18;;;;;;;14.15;7.40;;;10.70;99.90;;;;;;5065766;28;20357;-58
2022/10/04 04:15:47;;;;;;;10.23;6.93;;;10.70;99.90;;;;;;5073039;28;20103;-66
2022/10/04 04:18:18;;;;;;;11.43;7.25;;;10.70;99.90;;;;;;5072894;28;20132;-54
2022/10/04 04:20:44;;;;;;;11.32;7.07;;;10.60;99.90;;;;;;5073692;28;20021;-53
2022/10/04 04:23:27;;;;;;;13.27;7.13;;;10.60;99.90;;;;;;5073174;28;20469;-55
2022/10/04 04:25:54;;;;;;;14.73;8.63;;;10.60;99.90;;;;;;5073673;28;20025;-59
2022/10/04 04:28:35;;;;;;;14.48;8.77;;;10.50;99.90;;;;;;5073284;28;20061;-58
2022/10/04 04:31:18;;;;;;;13.13;8.88;;;10.50;99.90;;;;;;5073605;28;20089;-57
2022/10/04 04:33:59;;;;;;;14.55;9.48;;;10.50;99.90;;;;;;5073686;28;20741;-56
2022/10/04 04:36:27;;;;;;;;;;;10.40;99.90;;;;;;5073795;28;20035;-59
2022/10/04 04:41:39;;;;;;;15.82;9.00;;;10.30;99.90;;;;;;5073748;28;20097;-54
2022/10/04 04:44:18;;;;;;;17.15;9.48;;;10.30;99.90;;;;;;5072757;28;20029;-63
2022/10/04 04:46:47;;;;;;;16.00;9.07;;;10.30;99.90;;;;;;5073473;28;20032;-54
2022/10/04 04:49:16;;;;;;;13.77;8.10;;;10.30;99.90;;;;;;5073030;28;20020;-55
2022/10/04 04:51:48;;;;;;;15.63;9.98;;;10.20;99.90;;;;;;5073283;28;20106;-58
2022/10/04 04:54:15;;;;;;;14.35;9.00;;;10.20;99.90;;;;;;5072006;28;20066;-70
2022/10/04 04:56:42;;;;;;;15.30;9.13;;;10.20;99.90;;;;;;5070692;28;20256;-60
2022/10/04 04:59:10;;;;;;;21.25;9.55;;;10.20;99.90;;;;;;5072729;28;20104;-70
2022/10/04 05:01:45;;;;;;;16.25;9.55;;;10.10;99.90;;;;;;5073056;28;20033;-62
2022/10/04 05:04:11;;;;;;;14.73;9.40;;;10.10;99.90;;;;;;5072188;28;20403;-58
2022/10/04 05:06:42;;;;;;;15.30;9.50;;;10.10;99.90;;;;;;5073080;28;20020;-61
2022/10/04 05:09:34;;;;;;;14.23;9.30;;;10.10;99.90;;;;;;5044439;28;20026;-55
2022/10/04 05:12:11;;;;;;;18.50;10.48;;;10.10;99.90;;;;;;5031790;28;20038;-67
2022/10/04 05:14:42;;;;;;;16.40;10.00;;;10.00;99.90;;;;;;5033264;28;20022;-62
2022/10/04 05:17:23;;;;;;;17.45;11.18;;;10.00;99.90;;;;;;5032018;28;20048;-52
2022/10/04 05:19:49;;;;;;;19.05;11.07;;;10.00;99.90;;;;;;5032611;28;20036;-60
2022/10/04 05:22:21;;;;;;;17.38;10.88;;;10.00;99.90;;;;;;5034521;28;20099;-57
2022/10/04 05:24:55;;;;;;;16.63;10.40;;;10.00;99.90;;;;;;5047561;28;20055;-66
2022/10/04 05:27:35;;;;;;;14.00;10.10;;;10.00;99.90;;;;;;5051205;28;20504;-68
2022/10/04 05:30:05;;;;;;;19.95;12.15;;;10.00;99.90;;;;;;5051354;28;20017;-62
2022/10/04 05:32:56;;;;;;;22.42;13.75;;;10.00;99.90;;;;;;5050664;28;20421;-56
2022/10/04 05:35:22;;;;;;;29.05;16.13;;;10.00;99.90;;;;;;5048913;28;20037;-57
2022/10/04 05:38:01;;;;;;;33.90;17.55;;;10.00;99.90;;;;;;5051052;28;20025;-64
2022/10/04 05:40:43;;;;;;;31.38;16.70;;;10.00;99.90;;;;;;5050387;28;20025;-56
2022/10/04 05:43:39;;;;;;;34.08;18.15;;;10.00;99.90;;;;;;5031432;28;20504;-56
2022/10/04 05:46:21;;;;;;;28.05;17.17;;;10.00;99.90;;;;;;5050733;28;20085;-63
2022/10/04 05:49:11;;;;;;;27.42;18.05;;;10.00;99.90;;;;;;5051645;28;20665;-55
2022/10/04 05:51:54;;;;;;;25.77;17.52;;;10.00;99.90;;;;;;5051948;28;20029;-54
2022/10/04 05:54:27;;;;;;;26.67;16.73;;;10.00;99.90;;;;;;5051452;28;20025;-60
2022/10/04 05:57:11;;;;;;;24.63;14.98;;;10.00;99.90;;;;;;5051983;28;20418;-53
2022/10/04 06:00:05;;;;;;;23.42;13.88;;;10.00;99.90;;;;;;5051391;28;20028;-55
2022/10/04 06:02:53;;;;;;;20.15;13.93;;;10.00;99.90;;;;;;5083378;28;20021;-51
2022/10/04 06:05:41;;;;;;;26.58;15.07;;;10.00;99.90;;;;;;5051956;28;20044;-56
2022/10/04 06:08:26;;;;;;;27.58;16.63;;;10.00;99.90;;;;;;5050823;28;20033;-53
2022/10/04 06:11:08;;;;;;;31.20;18.50;;;10.10;99.90;;;;;;5051689;28;20037;-52
2022/10/04 06:13:55;;;;;;;27.63;16.02;;;10.10;99.90;;;;;;5052743;28;20466;-58
2022/10/04 06:16:46;;;;;;;25.25;16.30;;;10.10;99.90;;;;;;5052130;28;20377;-68
2022/10/04 06:19:31;;;;;;;24.70;14.35;;;10.20;99.90;;;;;;5052034;28;20045;-60
2022/10/04 06:22:16;;;;;;;25.10;16.35;;;10.20;99.90;;;;;;5050740;28;20045;-58
2022/10/04 06:24:47;;;;;;;26.50;15.70;;;10.20;99.90;;;;;;5051816;28;20352;-58
2022/10/04 06:27:30;;;;;;;34.67;17.45;;;10.20;99.90;;;;;;5051429;28;20382;-57
2022/10/04 06:30:04;;;;;;;26.95;15.65;;;10.20;99.90;;;;;;5051353;28;20056;-55
2022/10/04 06:32:43;;;;;;;30.40;17.92;;;10.20;99.90;;;;;;5051411;28;20099;-55
2022/10/04 06:35:24;;;;;;;37.10;22.40;;;10.20;99.90;;;;;;5083151;28;20017;-56
2022/10/04 06:38:03;;;;;;;36.47;23.73;;;10.20;99.90;;;;;;5051380;28;20036;-52
2022/10/04 06:41:07;;;;;;;46.75;27.52;;;10.30;99.90;;;;;;5051467;28;20025;-58
2022/10/04 06:43:45;;;;;;;38.38;24.35;;;10.20;99.90;;;;;;5050500;28;20112;-60
2022/10/04 06:46:25;;;;;;;40.05;23.42;;;10.20;99.90;;;;;;5051564;28;20065;-62
2022/10/04 06:49:08;;;;;;;44.60;27.67;;;10.30;99.90;;;;;;5050974;28;20013;-59
2022/10/04 06:51:59;;;;;;;38.92;24.42;;;10.30;99.90;;;;;;5050436;28;20404;-63
2022/10/04 06:54:49;;;;;;;36.67;23.27;;;10.30;99.90;;;;;;5051236;28;20060;-58
2022/10/04 06:57:21;;;;;;;45.13;28.27;;;10.30;99.90;;;;;;5050619;28;20032;-54
2022/10/04 07:00:04;;;;;;;47.40;26.92;;;10.30;99.90;;;;;;5051051;28;20028;-57
2022/10/04 07:02:39;;;;;;;30.65;20.15;;;10.20;99.90;;;;;;5051262;28;20082;-56
2022/10/04 07:05:31;;;;;;;29.65;18.90;;;10.30;99.90;;;;;;5081869;28;20071;-60
2022/10/04 07:08:09;;;;;;;30.98;19.38;;;10.20;99.90;;;;;;5050968;28;20052;-55
2022/10/04 07:10:44;;;;;;;25.75;15.60;;;10.20;99.90;;;;;;5050275;28;20033;-55
2022/10/04 07:13:22;;;;;;;18.90;13.00;;;10.20;99.90;;;;;;5051012;28;20078;-62
2022/10/04 07:15:58;;;;;;;24.33;15.15;;;10.20;99.90;;;;;;5050755;28;20397;-53
2022/10/04 07:18:30;;;;;;;21.73;14.70;;;10.20;99.90;;;;;;5050094;28;20508;-55
2022/10/04 07:21:08;;;;;;;19.85;13.55;;;10.20;99.90;;;;;;5050578;28;20446;-61
2022/10/04 07:23:50;;;;;;;22.48;15.35;;;10.20;99.90;;;;;;5050991;28;20029;-54
2022/10/04 07:26:24;;;;;;;22.40;14.85;;;10.20;99.90;;;;;;5051118;28;20025;-66
2022/10/04 07:31:38;;;;;;;25.77;15.85;;;10.30;99.90;;;;;;5050254;28;20484;-57
2022/10/04 07:34:16;;;;;;;20.25;13.40;;;10.40;99.90;;;;;;5050361;28;20029;-57
2022/10/04 07:36:52;;;;;;;23.27;13.55;;;10.40;99.90;;;;;;5051001;28;20449;-56
2022/10/04 07:39:30;;;;;;;20.25;12.77;;;10.50;99.90;;;;;;5049980;28;20414;-63
2022/10/04 07:42:04;;;;;;;18.52;11.75;;;10.50;99.90;;;;;;5050588;28;20060;-69
2022/10/04 07:44:47;;;;;;;22.88;14.40;;;10.60;99.90;;;;;;5050485;28;20078;-60
2022/10/04 07:47:26;;;;;;;22.60;16.05;;;10.70;99.90;;;;;;5050132;28;20423;-64
2022/10/04 07:49:53;;;;;;;20.33;13.60;;;10.80;99.90;;;;;;5050474;28;20025;-63
2022/10/04 07:52:47;;;;;;;19.15;13.18;;;10.90;99.90;;;;;;5050227;28;20410;-67
2022/10/04 07:55:44;;;;;;;19.77;12.32;;;11.00;99.90;;;;;;5050715;28;20378;-55
2022/10/04 07:58:12;;;;;;;17.85;10.90;;;11.00;99.90;;;;;;5050744;28;20025;-55
2022/10/04 08:01:15;;;;;;;17.15;11.85;;;11.00;99.90;;;;;;5049922;28;20025;-69
2022/10/04 08:04:18;;;;;;;25.95;14.57;;;11.10;99.90;;;;;;5054085;28;20053;-56
2022/10/04 08:06:58;;;;;;;23.45;13.57;;;11.10;99.90;;;;;;5053242;28;20111;-55
2022/10/04 08:09:59;;;;;;;22.10;14.80;;;11.20;99.90;;;;;;5054263;28;20024;-53
2022/10/04 08:12:37;;;;;;;23.10;15.32;;;11.30;99.90;;;;;;5054240;28;20033;-51
2022/10/04 08:15:24;;;;;;;24.42;15.70;;;11.30;99.90;;;;;;5053308;28;20025;-55
2022/10/04 08:17:50;;;;;;;20.63;14.68;;;11.40;99.90;;;;;;5053350;28;20080;-55
2022/10/04 08:20:46;;;;;;;23.25;14.20;;;11.40;99.90;;;;;;5054365;28;20032;-54
2022/10/04 08:23:31;;;;;;;20.33;13.15;;;11.40;99.90;;;;;;5055309;28;20021;-54
2022/10/04 08:26:13;;;;;;;16.23;11.02;;;11.50;99.90;;;;;;5053807;28;20391;-57
2022/10/04 08:31:46;;;;;;;20.02;11.88;;;11.80;99.90;;;;;;5053941;28;20090;-53
2022/10/04 08:34:43;;;;;;;14.95;9.88;;;12.00;99.90;;;;;;5052955;28;20376;-59
2022/10/04 08:37:36;;;;;;;17.60;9.10;;;12.10;99.90;;;;;;5053873;28;20036;-68
2022/10/04 08:40:32;;;;;;;15.18;9.55;;;12.20;99.90;;;;;;5053105;28;20029;-56
2022/10/04 08:43:36;;;;;;;16.88;10.13;;;12.30;99.90;;;;;;5052776;28;20021;-62
2022/10/04 08:46:42;;;;;;;15.88;9.18;;;12.40;99.90;;;;;;5053022;28;20549;-61
2022/10/04 08:49:23;;;;;;;17.00;9.15;;;12.50;99.90;;;;;;5052498;28;20025;-61
2022/10/04 08:51:51;;;;;;;14.20;9.18;;;12.60;99.90;;;;;;5053231;28;20124;-61
2022/10/04 08:54:41;;;;;;;15.50;9.27;;;12.60;99.90;;;;;;5053784;28;20051;-67
2022/10/04 08:57:09;;;;;;;14.30;8.57;;;12.70;99.90;;;;;;5052481;28;20385;-69
2022/10/04 08:59:35;;;;;;;12.73;8.10;;;12.70;99.90;;;;;;5053538;28;20389;-64
2022/10/04 09:02:19;;;;;;;13.80;7.60;;;12.80;99.90;;;;;;5053223;28;20496;-58
2022/10/04 09:05:05;;;;;;;14.68;8.07;;;12.90;99.90;;;;;;5052213;28;20354;-65
2022/10/04 09:07:50;;;;;;;13.82;9.13;;;13.00;99.90;;;;;;5053343;28;20040;-62
2022/10/04 09:10:19;;;;;;;12.20;7.80;;;13.10;99.90;;;;;;5052781;28;20063;-68
2022/10/04 09:13:12;;;;;;;16.88;8.63;;;13.10;99.90;;;;;;5052834;28;20053;-66
2022/10/04 09:15:59;;;;;;;13.35;8.38;;;13.20;99.90;;;;;;5053100;28;20025;-66
2022/10/04 09:18:51;;;;;;;14.00;9.07;;;13.20;99.90;;;;;;5052237;28;20049;-55
2022/10/04 09:21:44;;;;;;;13.88;9.18;;;13.30;99.90;;;;;;5051770;28;20037;-52
2022/10/04 09:24:36;;;;;;;15.02;8.38;;;13.40;99.90;;;;;;5052036;28;20100;-53
2022/10/04 09:27:15;;;;;;;11.50;7.20;;;13.40;99.90;;;;;;5052566;28;20492;-63
2022/10/04 09:30:02;;;;;;;14.98;8.00;;;13.40;99.90;;;;;;5052794;28;20029;-54
2022/10/04 09:32:49;;;;;;;13.60;7.55;;;13.40;99.90;;;;;;5051995;28;20150;-57
2022/10/04 09:35:33;;;;;;;12.32;8.10;;;13.50;99.90;;;;;;5052454;28;20039;-56
2022/10/04 09:38:08;;;;;;;13.88;8.65;;;13.60;99.90;;;;;;5051744;28;20120;-58
2022/10/04 09:40:40;;;;;;;13.68;6.95;;;13.60;99.90;;;;;;5052578;28;20200;-58
2022/10/04 09:43:27;;;;;;;12.13;7.60;;;13.70;99.90;;;;;;5052606;28;20106;-56
2022/10/04 09:46:30;;;;;;;13.40;8.60;;;13.70;99.90;;;;;;5051716;28;20036;-64
2022/10/04 09:49:14;;;;;;;15.05;8.85;;;13.80;99.90;;;;;;5052434;28;20108;-62
2022/10/04 09:52:14;;;;;;;15.10;8.65;;;13.90;99.90;;;;;;5051518;28;20033;-58
2022/10/04 09:55:17;;;;;;;10.95;6.65;;;13.90;99.90;;;;;;5052221;28;20025;-51
2022/10/04 09:58:04;;;;;;;11.43;8.02;;;14.00;99.90;;;;;;5052198;28;20029;-55
2022/10/04 10:00:58;;;;;;;14.25;8.43;;;14.10;99.90;;;;;;5051673;28;20394;-53
2022/10/04 10:03:34;;;;;;;11.63;7.60;;;14.10;99.90;;;;;;5052269;28;20025;-55
2022/10/04 10:06:06;;;;;;;13.43;7.65;;;14.20;99.90;;;;;;5051340;28;20059;-55
2022/10/04 10:08:54;;;;;;;12.82;7.53;;;14.20;99.90;;;;;;5051878;28;20031;-59
2022/10/04 10:14:32;;;;;;;12.55;7.68;;;14.40;99.90;;;;;;5051435;28;20207;-56
2022/10/04 10:17:38;;;;;;;17.50;8.88;;;14.50;99.90;;;;;;5051504;28;20049;-61
2022/10/04 10:20:41;;;;;;;13.38;7.38;;;14.50;99.90;;;;;;5050798;28;20432;-57
2022/10/04 10:23:12;;;;;;;12.68;6.57;;;14.70;99.90;;;;;;5051440;28;20029;-57
2022/10/04 10:25:37;;;;;;;;;;;14.70;99.90;;;;;;5051866;28;20025;-57
2022/10/04 10:28:24;;;;;;;12.68;6.72;;;14.70;99.90;;;;;;5066616;28;19970;-55
2022/10/04 10:31:17;;;;;;;11.77;6.25;;;14.70;99.90;;;;;;5068480;28;20045;-58
2022/10/04 10:34:07;;;;;;;11.75;6.20;;;14.80;99.90;;;;;;5051575;28;20067;-55
2022/10/04 10:36:45;;;;;;;14.07;6.63;;;14.80;99.90;;;;;;5051650;28;20500;-64
2022/10/04 10:39:10;;;;;;;12.57;5.88;;;14.80;99.90;;;;;;5051646;28;20024;-59
2022/10/04 10:42:08;;;;;;;13.90;6.25;;;14.80;99.80;;;;;;5050976;28;20040;-68
2022/10/04 10:45:22;;;;;;;14.38;7.28;;;14.90;99.70;;;;;;5051537;28;20036;-59
2022/10/04 10:48:09;;;;;;;11.32;6.85;;;15.00;98.90;;;;;;5050326;28;20031;-61
2022/10/04 10:51:29;;;;;;;14.20;7.97;;;15.10;98.80;;;;;;5051460;28;20024;-56
2022/10/04 10:54:10;;;;;;;11.95;6.97;;;15.10;98.40;;;;;;5048638;28;20543;-59
2022/10/04 10:57:03;;;;;;;11.88;5.63;;;15.20;98.00;;;;;;5050813;28;20025;-63
2022/10/04 10:59:59;;;;;;;10.60;5.65;;;15.20;97.90;;;;;;5051300;28;20025;-72
2022/10/04 11:03:10;;;;;;;10.27;5.75;;;15.30;97.10;;;;;;5050881;28;20075;-60
2022/10/04 11:06:12;;;;;;;11.35;5.60;;;15.30;96.80;;;;;;5051568;28;20081;-70
2022/10/04 11:09:06;;;;;;;13.18;6.20;;;15.30;96.70;;;;;;5048587;28;20082;-67
2022/10/04 11:12:11;;;;;;;10.38;5.20;;;15.30;96.30;;;;;;5051415;28;20040;-67
2022/10/04 11:15:09;;;;;;;12.23;5.95;;;15.30;96.60;;;;;;5050594;28;20033;-62
2022/10/04 11:17:56;;;;;;;12.60;5.55;;;15.50;96.00;;;;;;5051118;28;20386;-64
2022/10/04 11:20:43;;;;;;;16.27;5.85;;;15.60;95.80;;;;;;5051156;28;20029;-72
2022/10/04 11:23:47;;;;;;;10.07;5.18;;;15.60;95.70;;;;;;5050419;28;20025;-65
2022/10/04 11:26:33;;;;;;;9.57;5.28;;;15.70;95.20;;;;;;5051080;28;20113;-70
2022/10/04 11:29:20;;;;;;;10.38;5.95;;;15.70;95.10;;;;;;5050407;28;20021;-66
2022/10/04 11:32:00;;;;;;;10.73;5.65;;;15.70;95.10;;;;;;5050623;28;20060;-64
2022/10/04 11:34:45;;;;;;;13.10;6.47;;;15.70;95.10;;;;;;5051225;28;20025;-65
2022/10/04 11:37:20;;;;;;;12.68;6.40;;;15.80;95.30;;;;;;5051607;28;20282;-64
2022/10/04 11:40:33;;;;;;;14.00;6.00;;;15.90;95.00;;;;;;5054914;28;20040;-66
2022/10/04 11:43:30;;;;;;;9.55;5.13;;;16.00;95.10;;;;;;5053612;28;20136;-69
2022/10/04 11:46:16;;;;;;;10.60;5.40;;;16.00;95.00;;;;;;5054673;28;20256;-73
2022/10/04 11:49:04;;;;;;;11.10;4.93;;;16.10;94.50;;;;;;5054884;28;20025;-66
2022/10/04 11:52:03;;;;;;;10.02;4.45;;;16.20;94.00;;;;;;5052555;28;20400;-70
2022/10/04 11:54:56;;;;;;;7.65;4.32;;;16.20;93.50;;;;;;5054436;28;20029;-57
2022/10/04 11:57:56;;;;;;;10.68;4.13;;;16.20;92.20;;;;;;5053796;28;20390;-50
2022/10/04 12:00:25;;;;;;;7.53;4.45;;;16.30;92.40;;;;;;5054208;28;20032;-53
2022/10/04 12:03:08;;;;;;;6.78;4.18;;;16.30;91.60;;;;;;5054085;28;20022;-51
2022/10/04 12:05:51;;;;;;;8.52;3.75;;;16.30;91.80;;;;;;5053688;28;20403;-51
2022/10/04 12:08:40;;;;;;;11.40;4.60;;;16.40;91.50;;;;;;5054407;28;20025;-49
2022/10/04 12:11:15;;;;;;;10.52;4.55;;;16.40;91.40;;;;;;5053104;28;20112;-53
2022/10/04 12:13:53;;;;;;;8.32;4.40;;;16.40;91.70;;;;;;5054499;28;20377;-50
2022/10/04 12:16:46;;;;;;;8.43;3.85;;;16.40;91.90;;;;;;5054246;28;20363;-50
2022/10/04 12:19:33;;;;;;;14.20;5.15;;;16.60;91.50;;;;;;5053338;28;20056;-49
2022/10/04 12:22:05;;;;;;;11.95;4.70;;;16.70;91.40;;;;;;5053601;28;20025;-50
2022/10/04 12:24:49;;;;;;;10.45;4.25;;;16.70;91.20;;;;;;5053348;28;20095;-54
2022/10/04 12:27:39;;;;;;;7.75;4.20;;;16.90;91.10;;;;;;5053637;28;20063;-58
2022/10/04 12:30:20;;;;;;;8.27;3.85;;;17.00;91.40;;;;;;5053667;28;20029;-61
2022/10/04 12:33:03;;;;;;;8.95;3.25;;;17.10;90.70;;;;;;5053097;28;20442;-55
2022/10/04 12:35:49;;;;;;;5.50;3.08;;;17.20;89.90;;;;;;5062428;28;20028;-59
2022/10/04 12:38:25;;;;;;;8.80;4.30;;;17.20;90.00;;;;;;5051035;28;20097;-59
2022/10/04 12:41:28;;;;;;;8.60;4.10;;;17.30;89.50;;;;;;5053733;28;20155;-70
2022/10/04 12:44:19;;;;;;;9.82;4.18;;;17.50;88.70;;;;;;5053214;28;20466;-58
2022/10/04 12:46:53;;;;;;;;;;;17.50;88.50;;;;;;5053291;28;20029;-53
2022/10/04 12:49:37;;;;;;;8.38;4.03;;;17.50;87.80;;;;;;5053381;28;19936;-52
2022/10/04 12:52:19;;;;;;;6.60;3.35;;;17.50;87.00;;;;;;5053399;28;20128;-55
2022/10/04 12:54:51;;;;;;;8.13;3.60;;;17.50;87.40;;;;;;5052561;28;20087;-54
2022/10/04 12:57:47;;;;;;;7.95;3.72;;;17.60;87.30;;;;;;5053474;28;20029;-60
2022/10/04 13:00:21;;;;;;;7.57;3.35;;;17.70;86.60;;;;;;5053050;28;20014;-61
2022/10/04 13:03:26;;;;;;;5.68;3.38;;;17.70;86.00;;;;;;5051668;28;20111;-53
2022/10/04 13:06:03;;;;;;;5.85;3.20;;;17.70;85.70;;;;;;5052664;28;20051;-54
2022/10/04 13:08:58;;;;;;;4.45;2.67;;;17.70;85.60;;;;;;5052649;28;20090;-51
2022/10/04 13:11:40;;;;;;;5.68;3.05;;;17.60;85.30;;;;;;5053096;28;20041;-53
2022/10/04 13:14:43;;;;;;;6.47;3.10;;;17.50;84.90;;;;;;5052285;28;20016;-55
2022/10/04 13:17:15;;;;;;;4.90;2.72;;;17.50;84.90;;;;;;5052875;28;20037;-60
2022/10/04 13:20:09;;;;;;;;;;;17.40;84.10;;;;;;5053566;28;20025;-64
2022/10/04 13:22:51;;;;;;;5.88;2.55;;;17.30;84.90;;;;;;5050094;28;19904;-66
2022/10/04 13:25:50;;;;;;;5.40;2.67;;;17.20;86.10;;;;;;5053013;28;20512;-69
2022/10/04 13:28:28;;;;;;;5.78;3.08;;;17.10;86.50;;;;;;5052297;28;20099;-62
2022/10/04 13:31:05;;;;;;;5.18;2.40;;;17.10;86.50;;;;;;5052460;28;20493;-62
2022/10/04 13:33:50;;;;;;;6.32;3.17;;;17.20;86.30;;;;;;5052989;28;20099;-62
2022/10/04 13:36:25;;;;;;;7.93;3.58;;;17.20;86.40;;;;;;5052092;28;20029;-62
2022/10/04 13:39:18;;;;;;;8.25;3.67;;;17.30;86.80;;;;;;5052216;28;20025;-62
2022/10/04 13:42:02;;;;;;;5.97;3.40;;;17.20;86.40;;;;;;5051877;28;20031;-61
2022/10/04 13:44:53;;;;;;;6.30;3.55;;;17.30;86.30;;;;;;5052474;28;20100;-67
2022/10/04 13:47:41;;;;;;;6.65;3.45;;;17.30;86.40;;;;;;5052655;28;20017;-69
2022/10/04 13:50:27;;;;;;;6.05;3.30;;;17.30;87.00;;;;;;5051580;28;20036;-68
2022/10/04 13:59:08;;;;;;;4.05;2.63;;;17.60;85.80;;;;;;5052100;28;20090;-54
2022/10/04 14:01:36;;;;;;;5.82;2.72;;;17.70;82.00;;;;;;5046837;28;20433;-56